Time;durP1;ratioP1;P1;durP2;ratioP2;P2;SDS_P1;SDS_P2;PMS_P1;PMS_P2;Temp;Humidity;BMP_temperature;BMP_pressure;BME280_temperature;BME280_humidity;BME280_pressure;Samples;Min_cycle;Max_cycle;Signal;HPM_P1;HPM_P2
2022/04/24 00:02:23;;;;;;;20.67;11.60;;;;;;;17.16;66.36;98943.94;5092837;28;20672;-59
2022/04/24 00:04:50;;;;;;;23.03;10.10;;;;;;;17.14;66.13;98950.91;5092225;28;20222;-59
2022/04/24 00:07:18;;;;;;;20.57;10.43;;;;;;;17.07;66.33;98948.44;5092598;28;20187;-59
2022/04/24 00:09:46;;;;;;;15.47;10.73;;;;;;;17.06;66.55;98949.31;5091560;28;20195;-59
2022/04/24 00:12:16;;;;;;;21.87;10.83;;;;;;;17.03;66.91;98948.53;5092286;28;20669;-59
2022/04/24 00:14:43;;;;;;;19.03;11.80;;;;;;;17.00;67.41;98949.41;5092550;28;20195;-59
2022/04/24 00:17:10;;;;;;;17.63;11.23;;;;;;;16.97;67.37;98944.31;5092176;28;20244;-59
2022/04/24 00:19:37;;;;;;;24.33;10.57;;;;;;;16.95;67.67;98943.44;5091008;28;20187;-59
2022/04/24 00:22:05;;;;;;;20.27;11.53;;;;;;;16.92;67.84;98948.69;5092079;28;20187;-59
2022/04/24 00:24:33;;;;;;;17.17;10.43;;;;;;;16.88;67.86;98948.78;5092131;28;20660;-59
2022/04/24 00:27:00;;;;;;;14.03;10.83;;;;;;;16.80;67.88;98941.16;5092160;28;20222;-59
2022/04/24 00:29:27;;;;;;;14.97;9.50;;;;;;;16.77;67.09;98945.53;5092258;28;20197;-59
2022/04/24 00:31:54;;;;;;;14.27;7.63;;;;;;;16.70;65.54;98947.34;5092053;28;20504;-59
2022/04/24 00:34:21;;;;;;;12.75;8.38;;;;;;;16.71;65.27;98946.47;5090637;28;20443;-59
2022/04/24 00:36:48;;;;;;;8.33;5.63;;;;;;;16.75;62.04;98950.75;5091016;28;20381;-59
2022/04/24 00:39:15;;;;;;;9.57;7.07;;;;;;;16.79;62.52;98946.34;5112218;28;20653;-59
2022/04/24 00:41:47;;;;;;;13.83;7.23;;;;;;;16.75;63.38;98947.28;5112018;28;20277;-59
2022/04/24 00:44:14;;;;;;;6.77;4.87;;;;;;;16.72;63.07;98948.22;5112520;28;20214;-58
2022/04/24 00:46:42;;;;;;;6.17;4.33;;;;;;;16.70;61.26;98944.75;5112575;28;20926;-59
2022/04/24 00:49:10;;;;;;;5.73;3.90;;;;;;;16.70;60.46;98951.72;5112214;28;20197;-59
2022/04/24 00:51:38;;;;;;;8.07;5.13;;;;;;;16.70;60.56;98959.50;5112056;28;20664;-59
2022/04/24 00:54:08;;;;;;;8.40;3.90;;;;;;;16.74;60.63;98959.41;5111749;28;20189;-59
2022/04/24 00:56:35;;;;;;;6.00;4.73;;;;;;;16.73;61.19;98957.69;5111351;28;20276;-58
2022/04/24 00:59:05;;;;;;;6.43;4.13;;;;;;;16.71;60.39;98953.41;5111009;28;20659;-58
2022/04/24 01:01:33;;;;;;;6.90;3.77;;;;;;;16.70;60.24;98970.69;5110923;28;20186;-58
2022/04/24 01:04:02;;;;;;;6.90;4.53;;;;;;;16.67;59.93;98959.53;5110839;28;20224;-58
2022/04/24 01:06:30;;;;;;;7.53;3.70;;;;;;;16.69;60.00;98974.19;5111036;28;20277;-58
2022/04/24 01:08:56;;;;;;;7.37;4.57;;;;;;;16.65;60.41;98971.66;5110706;28;20201;-59
2022/04/24 01:11:23;;;;;;;9.40;4.20;;;;;;;16.65;60.59;98969.94;5111550;28;20187;-58
2022/04/24 01:13:50;;;;;;;6.60;4.73;;;;;;;16.63;60.68;98963.91;5111854;28;20192;-58
2022/04/24 01:16:19;;;;;;;9.20;4.87;;;;;;;16.61;60.90;98968.28;5111551;28;20218;-59
2022/04/24 01:18:45;;;;;;;7.30;4.30;;;;;;;16.61;60.98;98970.88;5111604;28;20339;-58
2022/04/24 01:21:14;;;;;;;8.90;4.40;;;;;;;16.59;61.37;98976.97;5111121;28;20191;-59
2022/04/24 01:23:43;;;;;;;7.17;4.37;;;;;;;16.55;61.76;98975.28;5111273;28;20711;-58
2022/04/24 01:26:10;;;;;;;7.37;4.13;;;;;;;16.56;61.96;98975.28;5111546;28;20683;-58
2022/04/24 01:28:37;;;;;;;8.97;4.63;;;;;;;16.50;62.64;98975.34;5111567;28;20580;-58
2022/04/24 01:31:04;;;;;;;8.73;4.33;;;;;;;16.48;62.91;98979.72;5111157;28;20229;-59
2022/04/24 01:33:31;;;;;;;5.77;4.30;;;;;;;16.45;63.32;98977.16;5111143;28;20194;-58
2022/04/24 01:35:58;;;;;;;7.73;4.73;;;;;;;16.40;63.49;98982.41;5111294;28;20273;-59
2022/04/24 01:38:28;;;;;;;6.73;4.83;;;;;;;16.46;63.71;98981.44;5111374;28;20190;-59
2022/04/24 01:40:55;;;;;;;7.00;5.13;;;;;;;16.48;63.79;98988.31;5111021;28;20667;-59
2022/04/24 01:43:22;;;;;;;9.13;4.77;;;;;;;16.44;64.32;98980.63;5111142;28;20611;-58
2022/04/24 01:45:49;;;;;;;8.17;5.57;;;;;;;16.30;64.97;98986.03;5111247;28;20228;-59
2022/04/24 01:48:16;;;;;;;8.27;5.43;;;;;;;16.20;65.72;98987.03;5111214;28;20204;-59
2022/04/24 01:50:43;;;;;;;6.90;5.23;;;;;;;16.14;66.16;98994.91;5110953;28;20541;-59
2022/04/24 01:53:11;;;;;;;7.20;5.30;;;;;;;16.02;66.79;98995.06;5110938;28;20289;-59
2022/04/24 01:55:40;;;;;;;9.33;5.60;;;;;;;15.89;67.28;98988.34;5111361;28;20193;-58
2022/04/24 01:58:06;;;;;;;12.77;5.83;;;;;;;15.85;67.75;98991.81;5110887;28;20649;-59
2022/04/24 02:00:33;;;;;;;8.87;5.50;;;;;;;15.79;68.01;98990.16;5110960;28;20196;-58
2022/04/24 02:03:00;;;;;;;8.43;6.27;;;;;;;15.62;69.09;98989.53;5111193;28;20193;-58
2022/04/24 02:05:27;;;;;;;9.33;5.80;;;;;;;15.48;69.87;98996.63;5111020;28;20229;-59
2022/04/24 02:07:54;;;;;;;7.53;6.20;;;;;;;15.44;70.10;98997.47;5110770;28;20210;-59
2022/04/24 02:10:21;;;;;;;10.03;8.07;;;;;;;15.44;70.08;98994.88;5081002;28;20286;-58
2022/04/24 02:12:49;;;;;;;11.37;8.70;;;;;;;15.41;70.08;98987.16;5070252;28;20288;-58
2022/04/24 02:15:18;;;;;;;13.03;7.60;;;;;;;15.39;70.16;98988.91;5069813;28;20314;-59
2022/04/24 02:17:45;;;;;;;8.73;5.47;;;;;;;15.31;70.47;98994.19;5069984;28;20279;-59
2022/04/24 02:20:12;;;;;;;8.33;5.80;;;;;;;15.26;70.79;99000.28;5070233;28;20273;-59
2022/04/24 02:22:39;;;;;;;7.97;5.63;;;;;;;15.24;70.78;99005.44;5069543;28;20197;-59
2022/04/24 02:25:07;;;;;;;8.73;5.63;;;;;;;15.21;71.28;98999.47;5068866;28;20218;-59
2022/04/24 02:27:34;;;;;;;12.43;6.77;;;;;;;15.18;71.39;99000.38;5069940;28;20654;-59
2022/04/24 02:30:02;;;;;;;10.00;6.67;;;;;;;15.18;71.52;99002.94;5069953;28;20572;-58
2022/04/24 02:32:29;;;;;;;7.87;5.60;;;;;;;15.10;71.67;99006.47;5069586;28;20283;-59
2022/04/24 02:34:56;;;;;;;11.93;6.90;;;;;;;15.09;72.17;99009.94;5069839;28;20278;-59
2022/04/24 02:37:23;;;;;;;10.27;6.23;;;;;;;15.11;72.23;99016.81;5069685;28;20670;-58
2022/04/24 02:39:50;;;;;;;12.13;6.47;;;;;;;15.06;72.27;99018.59;5070011;28;20188;-59
2022/04/24 02:42:17;;;;;;;9.93;6.33;;;;;;;15.05;72.52;99016.03;5069551;28;20274;-59
2022/04/24 02:44:44;;;;;;;11.70;6.67;;;;;;;15.03;72.44;99023.78;5069892;28;20555;-59
2022/04/24 02:47:12;;;;;;;9.13;7.10;;;;;;;14.99;72.70;99026.41;5069343;28;20434;-59
2022/04/24 02:49:39;;;;;;;8.97;6.50;;;;;;;14.99;72.61;99021.25;5069537;28;20279;-59
2022/04/24 02:52:06;;;;;;;11.50;7.20;;;;;;;14.98;72.61;99030.72;5069514;28;20187;-59
2022/04/24 02:54:33;;;;;;;10.73;6.20;;;;;;;14.93;73.00;99029.06;5069651;28;20183;-59
2022/04/24 02:57:00;;;;;;;8.17;6.40;;;;;;;14.84;73.68;99031.72;5069546;28;20198;-59
2022/04/24 02:59:29;;;;;;;10.00;6.43;;;;;;;14.73;74.13;99031.81;5069970;28;20198;-59
2022/04/24 03:01:56;;;;;;;9.80;6.50;;;;;;;14.69;74.32;99035.31;5069691;28;20598;-61
2022/04/24 03:04:24;;;;;;;11.60;7.68;;;;;;;14.65;74.93;99041.34;5069077;28;20907;-59
2022/04/24 03:06:51;;;;;;;7.50;6.03;;;;;;;14.61;74.69;99037.09;5069610;28;20197;-59
2022/04/24 03:09:18;;;;;;;8.90;6.27;;;;;;;14.57;74.80;99043.13;5069405;28;20658;-58
2022/04/24 03:11:45;;;;;;;11.60;6.67;;;;;;;14.50;74.97;99052.63;5069327;28;20191;-58
2022/04/24 03:14:12;;;;;;;12.53;7.23;;;;;;;14.45;75.07;99054.41;5069594;28;20691;-59
2022/04/24 03:16:39;;;;;;;6.63;5.80;;;;;;;14.30;75.59;99048.44;5069377;28;20243;-58
2022/04/24 03:19:06;;;;;;;11.67;6.70;;;;;;;14.34;75.70;99058.78;5069369;28;20191;-58
2022/04/24 03:21:34;;;;;;;10.33;6.47;;;;;;;14.25;75.81;99064.00;5069592;28;20204;-59
2022/04/24 03:24:01;;;;;;;8.40;6.07;;;;;;;14.27;75.62;99062.25;5069442;28;20217;-59
2022/04/24 03:26:28;;;;;;;9.00;5.40;;;;;;;14.25;75.40;99066.56;5078810;28;20222;-58
2022/04/24 03:28:56;;;;;;;8.50;5.77;;;;;;;14.29;75.18;99067.38;5089836;28;20195;-59
2022/04/24 03:31:23;;;;;;;9.03;5.50;;;;;;;14.29;75.43;99078.59;5089864;28;20281;-58
2022/04/24 03:33:52;;;;;;;10.70;6.03;;;;;;;14.25;75.66;99070.88;5089726;28;20218;-59
2022/04/24 03:36:19;;;;;;;11.57;6.07;;;;;;;14.30;75.21;99080.31;5089724;28;20674;-58
2022/04/24 03:38:47;;;;;;;8.70;5.77;;;;;;;14.30;75.46;99079.47;5089304;28;20202;-59
2022/04/24 03:41:14;;;;;;;11.00;6.27;;;;;;;14.38;75.11;99088.91;5089818;28;20197;-59
2022/04/24 03:43:41;;;;;;;10.60;5.97;;;;;;;14.36;75.21;99087.22;5090335;28;20280;-59
2022/04/24 03:46:08;;;;;;;8.43;5.93;;;;;;;14.37;75.12;99076.00;5093240;28;20220;-59
2022/04/24 03:48:35;;;;;;;12.33;6.10;;;;;;;14.44;75.17;99088.91;5101886;28;20202;-58
2022/04/24 03:51:02;;;;;;;10.07;7.07;;;;;;;14.46;75.08;99089.72;5092946;28;20195;-58
2022/04/24 03:53:29;;;;;;;8.90;5.83;;;;;;;14.46;75.21;99094.91;5092983;28;20209;-58
2022/04/24 03:55:57;;;;;;;10.05;6.90;;;;;;;14.51;75.53;99095.72;5098616;28;20748;-59
2022/04/24 03:58:24;;;;;;;15.70;6.87;;;;;;;14.59;75.00;99103.44;5093013;28;20276;-59
2022/04/24 04:00:51;;;;;;;11.23;6.40;;;;;;;14.53;75.41;99104.34;5093004;28;20187;-59
2022/04/24 04:03:18;;;;;;;9.80;6.30;;;;;;;14.59;75.13;99103.44;5092763;28;20285;-59
2022/04/24 04:05:44;;;;;;;8.43;6.57;;;;;;;14.61;75.04;99109.47;5092605;28;20270;-59
2022/04/24 04:08:11;;;;;;;8.13;6.60;;;;;;;14.63;74.94;99105.16;5092799;28;20187;-58
2022/04/24 04:10:38;;;;;;;7.77;6.67;;;;;;;14.65;74.65;99113.75;5092662;28;20191;-58
2022/04/24 04:13:10;;;;;;;13.87;7.13;;;;;;;14.70;75.03;99117.16;5092939;28;20198;-58
2022/04/24 04:15:37;;;;;;;10.97;6.83;;;;;;;14.70;74.63;99112.84;5092501;28;20222;-58
2022/04/24 04:18:04;;;;;;;12.00;8.07;;;;;;;14.74;74.80;99124.91;5092408;28;20275;-59
2022/04/24 04:20:31;;;;;;;9.50;6.83;;;;;;;14.72;74.92;99121.44;5092464;28;20195;-58
2022/04/24 04:22:58;;;;;;;7.57;6.60;;;;;;;14.81;74.68;99125.72;5092461;28;20677;-59
2022/04/24 04:25:25;;;;;;;11.27;7.57;;;;;;;14.90;74.58;99132.53;5092218;28;20725;-58
2022/04/24 04:27:53;;;;;;;13.37;7.13;;;;;;;14.95;74.10;99129.06;5092534;28;20197;-58
2022/04/24 04:30:22;;;;;;;9.33;6.53;;;;;;;15.06;73.81;99128.97;5092020;28;20305;-59
2022/04/24 04:32:50;;;;;;;9.07;6.87;;;;;;;15.03;73.44;99123.81;5096940;28;20588;-59
2022/04/24 04:35:22;;;;;;;12.03;7.60;;;;;;;15.08;73.45;99129.84;5112845;28;20268;-58
2022/04/24 04:37:49;;;;;;;14.30;8.23;;;;;;;15.11;73.59;99134.97;5101364;28;20208;-59
2022/04/24 04:40:18;;;;;;;11.97;6.87;;;;;;;15.17;72.91;99128.03;5092059;28;20261;-58
2022/04/24 04:42:45;;;;;;;10.30;6.63;;;;;;;15.22;72.28;99130.56;5092171;28;20281;-58
2022/04/24 04:45:12;;;;;;;9.10;6.70;;;;;;;15.28;71.88;99135.69;5108177;28;20222;-58
2022/04/24 04:47:40;;;;;;;9.80;7.47;;;;;;;15.34;71.68;99140.84;5112293;28;20197;-58
2022/04/24 04:50:08;;;;;;;13.07;7.27;;;;;;;15.35;71.54;99142.56;5112583;28;20190;-59
2022/04/24 04:52:35;;;;;;;13.80;7.40;;;;;;;15.36;70.85;99139.06;5112346;28;20695;-58
2022/04/24 04:55:02;;;;;;;10.45;7.80;;;;;;;15.41;71.02;99147.66;5095558;28;20523;-59
2022/04/24 04:57:29;;;;;;;14.80;7.95;;;;;;;15.45;71.35;99140.72;5088493;28;20447;-58
2022/04/24 04:59:55;;;;;;;8.47;7.57;;;;;;;15.58;70.54;99151.00;5088589;28;20279;-59
2022/04/24 05:02:23;;;;;;;10.97;6.90;;;;;;;15.62;69.45;99151.84;5091059;28;20191;-59
2022/04/24 05:04:51;;;;;;;12.37;7.20;;;;;;;15.75;69.21;99143.94;5088618;28;20259;-59
2022/04/24 05:07:18;;;;;;;13.93;7.60;;;;;;;15.83;68.75;99142.13;5071491;28;20570;-59
2022/04/24 05:09:45;;;;;;;14.90;7.67;;;;;;;15.97;68.25;99141.09;5071324;28;20198;-58
2022/04/24 05:12:12;;;;;;;14.93;7.30;;;;;;;16.05;67.83;99141.88;5071313;28;20192;-59
2022/04/24 05:14:39;;;;;;;12.97;7.30;;;;;;;16.14;67.28;99141.78;5071417;28;20202;-58
2022/04/24 05:17:06;;;;;;;10.90;8.23;;;;;;;16.25;66.12;99145.97;5070551;28;20426;-59
2022/04/24 05:19:33;;;;;;;8.67;7.30;;;;;;;16.38;65.64;99146.66;5071418;28;20192;-58
2022/04/24 05:22:01;;;;;;;15.37;8.10;;;;;;;16.41;65.20;99141.44;5071062;28;20283;-59
2022/04/24 05:24:28;;;;;;;11.50;8.37;;;;;;;16.48;64.63;99132.72;5091275;28;20197;-59
2022/04/24 05:26:55;;;;;;;13.03;8.03;;;;;;;16.60;64.39;99135.16;5091164;28;20264;-59
2022/04/24 05:29:22;;;;;;;13.60;7.40;;;;;;;16.66;64.08;99135.06;5091261;28;20659;-59
2022/04/24 05:31:49;;;;;;;10.00;7.00;;;;;;;16.75;63.30;99139.28;5095152;28;20277;-59
2022/04/24 05:34:16;;;;;;;10.10;7.23;;;;;;;16.82;63.02;99133.97;5094264;28;20199;-59
2022/04/24 05:36:43;;;;;;;13.17;7.07;;;;;;;16.90;62.74;99134.72;5091772;28;20573;-59
2022/04/24 05:39:11;;;;;;;13.33;7.27;;;;;;;16.92;62.28;99140.72;5090602;28;20191;-59
2022/04/24 05:41:38;;;;;;;10.90;6.30;;;;;;;17.00;61.94;99135.44;5090860;28;20206;-59
2022/04/24 05:44:05;;;;;;;9.10;6.67;;;;;;;17.07;61.70;99135.31;5091011;28;20187;-59
2022/04/24 05:46:32;;;;;;;7.70;5.60;;;;;;;17.11;60.82;99134.38;5091106;28;20222;-59
2022/04/24 05:49:00;;;;;;;9.17;6.20;;;;;;;17.21;60.44;99136.84;5088903;28;20206;-58
2022/04/24 05:51:27;;;;;;;11.27;6.63;;;;;;;17.30;60.80;99134.97;5089700;28;20440;-59
2022/04/24 05:53:54;;;;;;;11.03;6.73;;;;;;;17.45;60.17;99139.88;5084078;28;20208;-59
2022/04/24 05:56:23;;;;;;;10.10;6.23;;;;;;;17.54;59.57;99144.97;5088651;28;20204;-59
2022/04/24 05:58:50;;;;;;;9.10;5.87;;;;;;;17.61;59.39;99143.97;5090521;28;20641;-58
2022/04/24 06:01:16;;;;;;;8.83;5.90;;;;;;;17.57;59.33;99139.72;5090681;28;20205;-59
2022/04/24 06:03:43;;;;;;;8.23;5.70;;;;;;;17.63;59.30;99143.94;5090748;28;20198;-59
2022/04/24 06:06:11;;;;;;;6.67;4.90;;;;;;;17.65;59.16;99135.25;5089950;28;20249;-59
2022/04/24 06:08:38;;;;;;;9.53;5.47;;;;;;;17.57;58.95;99110.28;5090136;28;20281;-59
2022/04/24 06:11:05;;;;;;;10.10;5.20;;;;;;;17.79;58.46;99145.38;5090334;28;20676;-59
2022/04/24 06:13:33;;;;;;;6.63;4.53;;;;;;;17.81;58.51;99142.75;5090121;28;20278;-59
2022/04/24 06:16:00;;;;;;;5.80;4.60;;;;;;;17.84;58.13;99143.53;5088069;28;20221;-59
2022/04/24 06:18:27;;;;;;;8.57;4.55;;;;;;;17.86;58.70;99139.16;5089366;28;20436;-59
2022/04/24 06:20:55;;;;;;;7.33;4.63;;;;;;;17.90;58.32;99138.25;5090264;28;20260;-59
2022/04/24 06:23:24;;;;;;;7.80;4.77;;;;;;;18.01;58.38;99144.09;5090200;28;20538;-59
2022/04/24 06:25:51;;;;;;;11.95;4.90;;;;;;;18.08;58.48;99144.81;5087620;28;20508;-59
2022/04/24 06:28:18;;;;;;;8.80;4.73;;;;;;;18.18;58.17;99147.19;5090337;28;20205;-59
2022/04/24 06:30:47;;;;;;;11.27;5.13;;;;;;;18.22;58.30;99140.19;5090427;28;20198;-59
2022/04/24 06:33:15;;;;;;;12.07;5.20;;;;;;;18.15;59.21;99139.47;5090032;28;20198;-59
2022/04/24 06:35:44;;;;;;;5.80;4.97;;;;;;;18.18;58.94;99136.78;5089896;28;20285;-59
2022/04/24 06:38:11;;;;;;;9.33;5.13;;;;;;;18.21;59.05;99139.34;5090096;28;20197;-60
2022/04/24 06:40:38;;;;;;;9.43;4.93;;;;;;;18.29;59.31;99147.84;5089851;28;20285;-59
2022/04/24 06:43:07;;;;;;;9.23;5.20;;;;;;;18.34;59.37;99137.38;5089934;28;20252;-60
2022/04/24 06:45:36;;;;;;;9.43;5.37;;;;;;;18.42;59.67;99139.78;5089967;28;20241;-59
2022/04/24 06:48:06;;;;;;;10.40;5.27;;;;;;;18.43;59.40;99137.16;5089986;28;20290;-59
2022/04/24 06:50:34;;;;;;;7.90;5.90;;;;;;;18.40;59.81;99144.19;5089429;28;20538;-59
2022/04/24 06:53:02;;;;;;;7.67;5.87;;;;;;;18.37;60.05;99134.69;5090046;28;20282;-59
2022/04/24 06:55:31;;;;;;;7.30;5.87;;;;;;;18.39;60.41;99132.91;5087807;28;20198;-60
2022/04/24 06:57:58;;;;;;;7.50;5.83;;;;;;;18.51;60.17;99135.31;5083664;28;20284;-59
2022/04/24 07:00:27;;;;;;;8.13;5.93;;;;;;;18.58;59.66;99136.00;5089499;28;20273;-59
2022/04/24 07:02:54;;;;;;;8.27;5.83;;;;;;;18.68;59.54;99133.16;5089203;28;20673;-59
2022/04/24 07:05:23;;;;;;;10.13;5.77;;;;;;;18.73;59.58;99131.31;5089603;28;20191;-60
2022/04/24 07:07:50;;;;;;;10.87;6.07;;;;;;;18.75;59.37;99123.50;5089968;28;20194;-59
2022/04/24 07:10:17;;;;;;;6.93;5.70;;;;;;;18.71;59.68;99103.59;5088321;28;20191;-59
2022/04/24 07:12:45;;;;;;;11.43;6.27;;;;;;;18.97;59.30;99126.44;5089563;28;20233;-59
2022/04/24 07:15:13;;;;;;;8.93;6.30;;;;;;;18.93;59.36;99132.59;5089394;28;20257;-59
2022/04/24 07:17:41;;;;;;;10.67;6.20;;;;;;;19.01;59.46;99128.94;5088353;28;20187;-59
2022/04/24 07:20:09;;;;;;;11.83;6.23;;;;;;;18.95;60.00;99138.66;5093146;28;20202;-60
2022/04/24 07:22:45;;;;;;;8.57;6.63;;;;;;;19.01;59.56;99136.75;5093374;28;20195;-60
2022/04/24 07:25:13;;;;;;;6.47;5.83;;;;;;;19.12;59.81;99129.53;5093533;28;20191;-60
2022/04/24 07:27:40;;;;;;;11.67;6.20;;;;;;;19.15;59.68;99124.25;5093288;28;20211;-60
2022/04/24 07:30:13;;;;;;;9.43;6.63;;;;;;;19.34;58.55;99128.13;5093257;28;20201;-59
2022/04/24 07:32:45;;;;;;;13.97;6.37;;;;;;;19.42;57.97;99128.81;5093751;28;20256;-60
2022/04/24 07:35:13;;;;;;;13.17;6.57;;;;;;;19.50;56.19;99125.19;5093145;28;20214;-59
2022/04/24 07:37:40;;;;;;;8.47;5.53;;;;;;;19.39;56.07;99128.88;5093048;28;20194;-59
2022/04/24 07:40:10;;;;;;;8.00;5.47;;;;;;;19.46;56.08;99131.34;5092723;28;20734;-59
2022/04/24 07:42:48;;;;;;;11.03;5.50;;;;;;;19.46;54.52;99134.81;5092676;28;20193;-59
2022/04/24 07:45:19;;;;;;;8.47;5.30;;;;;;;19.45;55.64;99130.50;5092601;28;20277;-59
2022/04/24 07:47:46;;;;;;;9.73;5.87;;;;;;;19.37;56.03;99129.78;5092719;28;20733;-59
2022/04/24 07:50:14;;;;;;;7.70;5.53;;;;;;;19.48;55.68;99122.59;5092863;28;20191;-60
2022/04/24 07:52:41;;;;;;;10.50;5.60;;;;;;;19.72;55.58;99118.50;5090447;28;20442;-60
2022/04/24 07:55:12;;;;;;;7.50;5.13;;;;;;;19.93;54.57;99123.13;5092461;28;20203;-61
2022/04/24 07:57:39;;;;;;;11.30;5.30;;;;;;;20.03;54.48;99124.59;5092374;28;20251;-61
2022/04/24 08:00:07;;;;;;;7.90;5.57;;;;;;;19.87;54.75;99116.34;5092749;28;20191;-60
2022/04/24 08:02:45;;;;;;;7.97;5.13;;;;;;;19.92;55.66;99116.19;5092654;28;20593;-59
2022/04/24 08:05:12;;;;;;;8.37;5.07;;;;;;;20.11;54.16;99114.78;5092366;28;20187;-61
2022/04/24 08:07:39;;;;;;;12.60;5.73;;;;;;;20.27;53.79;99110.03;5092221;28;20328;-61
2022/04/24 08:10:06;;;;;;;9.70;5.50;;;;;;;20.38;53.20;99105.38;5092369;28;20199;-62
2022/04/24 08:12:35;;;;;;;9.23;4.97;;;;;;;20.34;53.26;99107.19;5092279;28;20287;-60
2022/04/24 08:15:02;;;;;;;11.27;5.77;;;;;;;20.54;53.20;99096.19;5092294;28;20333;-61
2022/04/24 08:17:29;;;;;;;9.00;5.30;;;;;;;20.62;53.03;99099.41;5092319;28;20878;-61
2022/04/24 08:19:56;;;;;;;12.47;5.90;;;;;;;20.82;52.88;99094.41;5092261;28;20194;-60
2022/04/24 08:22:23;;;;;;;11.50;5.00;;;;;;;20.98;52.19;99093.03;5092127;28;20191;-64
2022/04/24 08:24:50;;;;;;;9.50;5.28;;;;;;;21.10;51.44;99097.03;5091766;28;20436;-60
2022/04/24 08:27:17;;;;;;;14.10;6.80;;;;;;;21.29;51.27;99095.50;5092346;28;20219;-60
2022/04/24 08:29:45;;;;;;;8.57;5.93;;;;;;;21.42;50.71;99085.50;5091263;28;20313;-60
2022/04/24 08:32:12;;;;;;;14.37;6.00;;;;;;;21.52;50.41;99087.75;5091730;28;20191;-59
2022/04/24 08:34:39;;;;;;;7.70;4.73;;;;;;;21.57;50.26;99079.75;5091999;28;20191;-60
2022/04/24 08:37:06;;;;;;;13.37;5.67;;;;;;;21.60;50.06;99079.63;5091407;28;20227;-60
2022/04/24 08:39:33;;;;;;;13.73;5.47;;;;;;;21.54;50.16;99078.09;5091919;28;20191;-61
2022/04/24 08:42:00;;;;;;;8.53;4.93;;;;;;;21.48;49.88;99073.06;5091816;28;20195;-60
2022/04/24 08:44:29;;;;;;;12.10;5.13;;;;;;;21.54;50.29;99061.53;5085108;28;20207;-60
2022/04/24 08:46:57;;;;;;;6.33;4.63;;;;;;;21.47;50.55;99068.78;5071370;28;20792;-61
2022/04/24 08:49:26;;;;;;;6.13;4.80;;;;;;;21.55;50.70;99063.25;5071266;28;20751;-61
2022/04/24 08:51:54;;;;;;;7.37;4.70;;;;;;;21.56;50.38;99055.34;5071460;28;20199;-61
2022/04/24 08:54:22;;;;;;;14.82;5.72;;;;;;;21.60;51.64;99059.59;5071022;28;20442;-57
2022/04/24 08:56:51;;;;;;;9.13;4.63;;;;;;;21.68;51.21;99051.47;5071123;28;20673;-57
2022/04/24 08:59:17;;;;;;;7.37;4.80;;;;;;;21.83;50.87;99057.91;5071184;28;20223;-57
2022/04/24 09:01:46;;;;;;;6.47;5.57;;;;;;;21.94;50.25;99050.56;5075756;28;20198;-57
2022/04/24 09:04:14;;;;;;;9.93;5.60;;;;;;;21.96;50.87;99054.81;5090702;28;20193;-57
2022/04/24 09:06:42;;;;;;;9.77;6.17;;;;;;;22.06;49.92;99042.25;5090681;28;20210;-57
2022/04/24 09:09:09;;;;;;;9.37;4.83;;;;;;;21.90;50.43;99043.72;5089424;28;20198;-57
2022/04/24 09:11:36;;;;;;;10.87;5.10;;;;;;;21.75;51.16;99037.28;5088096;28;20357;-57
2022/04/24 09:14:18;;;;;;;6.93;5.17;;;;;;;21.85;51.22;99040.38;5090718;28;20195;-57
2022/04/24 09:16:49;;;;;;;11.30;5.53;;;;;;;21.98;50.49;99036.44;5090254;28;20222;-57
2022/04/24 09:19:21;;;;;;;8.43;5.03;;;;;;;22.14;50.41;99037.59;5090220;28;20440;-57
2022/04/24 09:21:48;;;;;;;7.00;5.67;;;;;;;22.20;50.15;99017.25;5089499;28;20606;-57
2022/04/24 09:24:15;;;;;;;8.40;5.47;;;;;;;22.41;49.58;99012.13;5089164;28;20187;-57
2022/04/24 09:26:53;;;;;;;9.10;5.50;;;;;;;22.39;49.40;98991.22;5086558;28;20575;-57
2022/04/24 09:29:21;;;;;;;9.50;5.27;;;;;;;22.52;49.47;99013.41;5089939;28;20186;-56
2022/04/24 09:31:49;;;;;;;11.90;5.63;;;;;;;22.51;50.30;98989.88;5089738;28;20198;-57
2022/04/24 09:34:17;;;;;;;9.00;5.97;;;;;;;22.71;49.63;99009.19;5090308;28;20209;-57
2022/04/24 09:36:46;;;;;;;7.57;4.83;;;;;;;22.84;48.95;99002.50;5090203;28;20210;-57
2022/04/24 09:39:13;;;;;;;14.63;6.00;;;;;;;22.96;48.31;98995.91;5088983;28;20187;-57
2022/04/24 09:41:40;;;;;;;9.77;5.50;;;;;;;23.01;48.31;98993.94;5090302;28;20194;-57
2022/04/24 09:44:14;;;;;;;11.33;7.23;;;;;;;23.17;48.20;98992.38;5090197;28;20260;-57
2022/04/24 09:46:42;;;;;;;12.23;6.53;;;;;;;23.13;48.05;98976.88;5089857;28;20789;-57
2022/04/24 09:49:11;;;;;;;10.40;7.10;;;;;;;23.40;47.53;98984.38;5090104;28;20260;-58
2022/04/24 09:51:43;;;;;;;11.13;5.72;;;;;;;23.30;48.18;98966.47;5089975;28;20446;-57
2022/04/24 09:54:13;;;;;;;8.40;5.53;;;;;;;23.37;48.14;98976.69;5088763;28;20190;-57
2022/04/24 09:56:40;;;;;;;8.10;5.47;;;;;;;23.34;48.22;98973.31;5086744;28;20203;-57
2022/04/24 09:59:08;;;;;;;13.73;5.30;;;;;;;23.19;49.50;98976.56;5072629;28;20195;-57
2022/04/24 10:01:35;;;;;;;9.90;5.37;;;;;;;23.05;49.46;98968.44;5087031;28;20202;-58
2022/04/24 10:04:02;;;;;;;8.97;5.50;;;;;;;23.17;50.11;98965.31;5089626;28;20186;-57
2022/04/24 10:06:31;;;;;;;11.57;6.47;;;;;;;23.22;49.39;98961.56;5089823;28;20191;-57
2022/04/24 10:09:00;;;;;;;9.20;5.93;;;;;;;22.97;49.95;98926.84;5087019;28;20650;-57
2022/04/24 10:11:30;;;;;;;10.80;5.93;;;;;;;23.18;49.41;98946.06;5089977;28;20197;-57
2022/04/24 10:14:02;;;;;;;14.65;5.82;;;;;;;23.37;48.71;98954.81;5094449;28;20461;-57
2022/04/24 10:16:54;;;;;;;15.70;6.23;;;;;;;23.57;48.40;98952.16;5092366;28;21104;-57
2022/04/24 10:19:36;;;;;;;10.13;5.47;;;;;;;23.74;47.89;98954.88;5096378;28;20202;-57
2022/04/24 10:22:08;;;;;;;8.30;5.13;;;;;;;23.86;47.29;98950.88;5091754;28;20274;-57
2022/04/24 10:24:42;;;;;;;9.07;5.70;;;;;;;23.88;47.28;98939.38;5088888;28;20522;-57
2022/04/24 10:27:12;;;;;;;11.37;5.03;;;;;;;23.92;46.31;98946.19;5088859;28;20305;-57
2022/04/24 10:29:49;;;;;;;9.03;4.67;;;;;;;23.76;47.34;98952.22;5087511;28;20187;-57
2022/04/24 10:32:26;;;;;;;10.77;4.70;;;;;;;23.62;47.53;98942.34;5089927;28;20195;-57
2022/04/24 10:34:53;;;;;;;7.97;4.77;;;;;;;23.84;47.97;98942.22;5089747;28;20194;-57
2022/04/24 10:37:26;;;;;;;12.40;5.10;;;;;;;23.85;46.47;98936.03;5090881;28;20190;-57
2022/04/24 10:39:57;;;;;;;11.13;4.90;;;;;;;23.89;46.09;98932.34;5103231;28;20660;-57
2022/04/24 10:42:32;;;;;;;9.97;4.47;;;;;;;23.81;46.48;98926.63;5096836;28;20203;-58
2022/04/24 10:45:07;;;;;;;8.90;4.60;;;;;;;24.10;46.92;98931.38;5089813;28;20259;-57
2022/04/24 10:47:43;;;;;;;11.67;4.63;;;;;;;24.33;46.46;98925.88;5090420;28;20237;-57
2022/04/24 10:50:10;;;;;;;10.53;4.33;;;;;;;24.20;45.25;98921.28;5109069;28;20675;-57
2022/04/24 10:52:41;;;;;;;8.37;4.50;;;;;;;24.15;44.52;98925.88;5110367;28;20281;-57
2022/04/24 10:55:09;;;;;;;10.60;4.60;;;;;;;24.11;45.41;98929.59;5114457;28;20225;-57
2022/04/24 10:57:43;;;;;;;13.67;4.43;;;;;;;24.07;46.17;98921.84;5114300;28;20198;-57
2022/04/24 11:00:19;;;;;;;7.90;4.03;;;;;;;24.24;46.07;98913.19;5096145;28;20202;-56
2022/04/24 11:02:46;;;;;;;10.63;4.67;;;;;;;24.47;45.49;98914.69;5092781;28;20205;-57
2022/04/24 11:05:19;;;;;;;10.83;4.57;;;;;;;24.53;44.93;98914.41;5093568;28;20195;-57
2022/04/24 11:07:46;;;;;;;13.13;4.67;;;;;;;24.48;44.96;98905.88;5093371;28;20218;-57
2022/04/24 11:10:14;;;;;;;10.73;4.93;;;;;;;24.48;44.92;98893.59;5092221;28;20191;-57
2022/04/24 11:12:43;;;;;;;11.30;4.50;;;;;;;24.66;45.80;98897.09;5093273;28;20195;-57
2022/04/24 11:15:12;;;;;;;14.37;4.47;;;;;;;24.78;44.91;98899.09;5093087;28;20258;-57
2022/04/24 11:17:40;;;;;;;14.40;5.13;;;;;;;24.80;44.42;98888.53;5093127;28;20190;-57
2022/04/24 11:20:10;;;;;;;12.50;4.57;;;;;;;24.71;44.35;98879.31;5092971;28;20576;-57
2022/04/24 11:22:46;;;;;;;9.17;5.17;;;;;;;25.04;44.79;98882.03;5093358;28;20596;-57
2022/04/24 11:25:14;;;;;;;8.83;4.63;;;;;;;25.02;44.09;98892.63;5093127;28;20203;-57
2022/04/24 11:27:44;;;;;;;7.33;3.90;;;;;;;25.14;43.66;98891.97;5086243;28;20294;-57
2022/04/24 11:30:21;;;;;;;13.87;4.80;;;;;;;25.00;41.99;98883.09;5072810;28;20191;-57
2022/04/24 11:32:58;;;;;;;13.30;4.17;;;;;;;25.08;42.39;98880.91;5073122;28;20218;-57
2022/04/24 11:35:27;;;;;;;11.37;4.50;;;;;;;25.33;42.93;98875.22;5072655;28;20198;-57